createdAt,value
2018-01-11T00:01:44.117Z,55.05
2018-01-11T00:04:11.813Z,61.50
2018-01-11T00:06:38.732Z,56.45
2018-01-11T00:09:05.668Z,49.28
2018-01-11T00:11:33.366Z,54.90
2018-01-11T00:14:00.352Z,52.10
2018-01-11T00:16:27.295Z,53.03
2018-01-11T00:18:54.232Z,57.25
2018-01-11T00:21:21.140Z,57.80
2018-01-11T00:23:48.108Z,51.00
2018-01-11T00:26:15.047Z,54.83
2018-01-11T00:28:41.984Z,52.83
2018-01-11T00:31:08.931Z,63.08
2018-01-11T00:33:35.882Z,51.65
2018-01-11T00:36:02.802Z,56.83
2018-01-11T00:38:29.724Z,50.28
2018-01-11T00:40:57.434Z,53.63
2018-01-11T00:43:24.322Z,54.10
2018-01-11T00:45:52.021Z,55.92
2018-01-11T00:48:18.942Z,56.25
2018-01-11T00:50:46.645Z,44.92
2018-01-11T00:53:13.595Z,65.72
2018-01-11T00:55:40.696Z,51.60
2018-01-11T00:58:07.608Z,47.08
2018-01-11T01:00:34.539Z,54.85
2018-01-11T01:03:01.452Z,55.92
2018-01-11T01:05:28.406Z,54.80
2018-01-11T01:07:55.342Z,48.97
2018-01-11T01:10:22.268Z,52.80
2018-01-11T01:12:50.122Z,53.15
2018-01-11T01:15:17.818Z,50.10
2018-01-11T01:17:44.924Z,51.03
2018-01-11T01:20:13.632Z,48.03
2018-01-11T01:25:24.840Z,48.47
2018-01-11T01:27:51.752Z,47.03
2018-01-11T01:30:19.461Z,48.08
2018-01-11T01:32:46.369Z,45.58
2018-01-11T01:35:14.082Z,53.10
2018-01-11T01:37:41.015Z,52.60
2018-01-11T01:40:07.925Z,47.72
2018-01-11T01:42:34.870Z,44.65
2018-01-11T01:45:01.785Z,48.08
2018-01-11T01:47:28.702Z,51.88
2018-01-11T01:49:55.644Z,52.38
2018-01-11T01:52:22.553Z,52.83
2018-01-11T01:54:49.497Z,51.35
2018-01-11T01:57:16.409Z,47.97
2018-01-11T01:59:43.333Z,47.78
2018-01-11T02:02:10.265Z,48.10
2018-01-11T02:04:37.223Z,50.00
2018-01-11T02:07:04.171Z,52.42
2018-01-11T02:09:31.084Z,44.88
2018-01-11T02:11:58.021Z,44.60
2018-01-11T02:14:24.936Z,48.00
2018-01-11T02:16:52.626Z,46.72
2018-01-11T02:19:19.553Z,43.55
2018-01-11T02:21:46.468Z,48.87
2018-01-11T02:24:13.380Z,48.35
2018-01-11T02:26:40.315Z,47.75
2018-01-11T02:29:07.225Z,49.50
2018-01-11T02:31:34.921Z,44.20
2018-01-11T02:34:01.829Z,46.50
2018-01-11T02:36:28.748Z,48.40
2018-01-11T02:38:55.681Z,47.83
2018-01-11T02:41:22.606Z,46.20
2018-01-11T02:43:49.517Z,45.55
2018-01-11T02:46:16.440Z,43.40
2018-01-11T02:48:44.125Z,49.72
2018-01-11T02:51:11.052Z,37.72
2018-01-11T02:53:38.728Z,39.58
2018-01-11T02:56:06.517Z,39.92
2018-01-11T02:58:33.425Z,38.45
2018-01-11T03:01:01.135Z,41.25
2018-01-11T03:03:28.048Z,45.88
2018-01-11T03:05:54.978Z,46.00
2018-01-11T03:08:22.653Z,42.08
2018-01-11T03:10:49.582Z,44.00
2018-01-11T03:13:16.491Z,39.78
2018-01-11T03:15:43.748Z,41.95
2018-01-11T03:18:10.661Z,36.92
2018-01-11T03:20:37.591Z,43.75
2018-01-11T03:23:04.497Z,45.08
2018-01-11T03:25:32.264Z,37.15
2018-01-11T03:27:59.952Z,39.28
2018-01-11T03:30:26.882Z,39.25
2018-01-11T03:32:53.796Z,42.67
2018-01-11T03:35:20.726Z,43.97
2018-01-11T03:37:47.634Z,45.17
2018-01-11T03:40:14.556Z,40.40
2018-01-11T03:42:42.228Z,39.92
2018-01-11T03:45:09.153Z,40.92
2018-01-11T03:47:36.836Z,45.12
2018-01-11T03:50:03.776Z,39.17
2018-01-11T03:52:30.692Z,41.83
2018-01-11T03:54:57.620Z,35.67
2018-01-11T03:57:25.293Z,43.58
2018-01-11T03:59:52.224Z,41.72
2018-01-11T04:02:19.907Z,42.92
2018-01-11T04:04:46.830Z,42.50
2018-01-11T04:07:15.419Z,37.75
2018-01-11T04:09:43.104Z,42.95
2018-01-11T04:12:10.012Z,39.45
2018-01-11T04:14:37.708Z,43.97
2018-01-11T04:17:04.614Z,38.10
2018-01-11T04:19:31.537Z,44.70
2018-01-11T04:21:58.452Z,37.10
2018-01-11T04:24:25.378Z,41.30
2018-01-11T04:26:53.047Z,39.20
2018-01-11T04:29:20.776Z,33.88
2018-01-11T04:31:47.683Z,38.53
2018-01-11T04:34:14.608Z,41.85
2018-01-11T04:36:41.512Z,37.85
2018-01-11T04:39:08.436Z,37.92
2018-01-11T04:41:35.356Z,43.15
2018-01-11T04:44:02.287Z,42.45
2018-01-11T04:46:29.196Z,36.35
2018-01-11T04:48:56.112Z,37.08
2018-01-11T04:51:23.039Z,40.80
2018-01-11T04:53:50.893Z,43.60
2018-01-11T04:56:17.805Z,43.10
2018-01-11T04:58:44.725Z,38.20
2018-01-11T05:01:12.625Z,48.47
2018-01-11T05:03:40.317Z,36.72
2018-01-11T05:06:07.253Z,37.60
2018-01-11T05:08:34.184Z,41.78
2018-01-11T05:11:01.099Z,40.22
2018-01-11T05:13:28.020Z,35.53
2018-01-11T05:15:54.928Z,41.13
2018-01-11T05:18:22.800Z,32.78
2018-01-11T05:20:49.708Z,36.30
2018-01-11T05:23:17.408Z,38.88
2018-01-11T05:25:44.334Z,35.95
2018-01-11T05:28:11.270Z,31.77
2018-01-11T05:30:38.945Z,36.20
2018-01-11T05:33:05.872Z,32.17
2018-01-11T05:35:33.547Z,38.55
2018-01-11T05:38:00.478Z,33.80
2018-01-11T05:40:27.398Z,34.92
2018-01-11T05:42:55.086Z,39.55
2018-01-11T05:45:22.000Z,32.85
2018-01-11T05:47:48.929Z,34.90
2018-01-11T05:50:16.605Z,40.40
2018-01-11T05:52:43.532Z,36.38
2018-01-11T05:55:10.441Z,39.38
2018-01-11T05:57:37.368Z,34.55
2018-01-11T06:00:04.273Z,30.35
2018-01-11T06:02:31.201Z,42.20
2018-01-11T06:04:58.118Z,33.85
2018-01-11T06:07:25.056Z,34.53
2018-01-11T06:09:52.736Z,34.25
2018-01-11T06:12:23.964Z,30.95
2018-01-11T06:14:50.890Z,37.10
2018-01-11T06:17:17.793Z,31.98
2018-01-11T06:19:44.708Z,36.78
2018-01-11T06:22:12.396Z,32.83
2018-01-11T06:24:39.329Z,30.02
2018-01-11T06:27:06.250Z,30.23
2018-01-11T06:29:33.155Z,29.40
2018-01-11T06:32:00.852Z,29.83
2018-01-11T06:34:27.780Z,32.70
2018-01-11T06:36:54.713Z,26.77
2018-01-11T06:39:21.624Z,31.52
2018-01-11T06:41:48.563Z,30.62
2018-01-11T06:44:16.456Z,32.45
2018-01-11T06:46:44.141Z,34.78
2018-01-11T06:49:11.051Z,34.30
2018-01-11T06:51:37.973Z,32.83
2018-01-11T06:54:04.897Z,39.10
2018-01-11T06:56:31.811Z,29.85
2018-01-11T06:58:58.766Z,33.58
2018-01-11T07:01:25.690Z,33.13
2018-01-11T07:03:52.625Z,35.20
2018-01-11T07:06:20.308Z,40.33
2018-01-11T07:08:47.228Z,34.80
2018-01-11T07:11:14.925Z,32.80
2018-01-11T07:13:41.836Z,35.38
2018-01-11T07:16:09.526Z,35.63
2018-01-11T07:18:36.434Z,35.15
2018-01-11T07:21:03.383Z,35.35
2018-01-11T07:23:31.081Z,35.03
2018-01-11T07:25:58.016Z,37.75
2018-01-11T07:28:24.924Z,32.33
2018-01-11T07:30:51.872Z,35.95
2018-01-11T07:33:19.564Z,36.95
2018-01-11T07:35:46.485Z,34.90
2018-01-11T07:38:14.168Z,36.75
2018-01-11T07:40:41.086Z,32.28
2018-01-11T07:43:08.023Z,34.42
2018-01-11T07:45:34.944Z,36.30
2018-01-11T07:48:01.879Z,38.42
2018-01-11T07:50:28.794Z,42.45
2018-01-11T07:52:56.485Z,39.60
2018-01-11T07:55:23.392Z,37.10
2018-01-11T07:57:52.182Z,37.95
2018-01-11T08:00:19.115Z,39.92
2018-01-11T08:02:46.080Z,40.83
2018-01-11T08:05:12.996Z,47.50
2018-01-11T08:07:39.915Z,43.70
2018-01-11T08:10:06.826Z,34.17
2018-01-11T08:12:33.807Z,36.50
2018-01-11T08:15:00.712Z,42.30
2018-01-11T08:17:27.632Z,40.78
2018-01-11T08:19:55.324Z,44.10
2018-01-11T08:22:22.264Z,42.65
2018-01-11T08:24:49.172Z,38.70
2018-01-11T08:27:16.124Z,40.20
2018-01-11T08:29:43.053Z,46.20
2018-01-11T08:32:09.979Z,38.33
2018-01-11T08:34:36.891Z,39.25
2018-01-11T08:37:03.830Z,46.08
2018-01-11T08:39:30.739Z,43.50
2018-01-11T08:41:57.661Z,41.08
2018-01-11T08:44:24.568Z,44.38
2018-01-11T08:46:51.507Z,41.42
2018-01-11T08:49:18.872Z,49.70
2018-01-11T08:51:45.820Z,52.20
2018-01-11T08:54:12.744Z,49.88
2018-01-11T08:56:40.433Z,57.60
2018-01-11T08:59:07.361Z,58.83
2018-01-11T09:01:34.284Z,65.43
2018-01-11T09:04:01.964Z,76.10
2018-01-11T09:06:28.905Z,66.32
2018-01-11T09:08:55.850Z,69.37
2018-01-11T09:11:22.784Z,71.53
2018-01-11T09:13:49.717Z,64.03
2018-01-11T09:16:17.407Z,69.80
2018-01-11T09:18:44.320Z,82.12
2018-01-11T09:21:11.249Z,93.55
2018-01-11T09:23:38.169Z,94.47
2018-01-11T09:26:05.104Z,95.65
2018-01-11T09:28:35.197Z,105.18
2018-01-11T09:31:02.115Z,82.18
2018-01-11T09:33:29.023Z,99.57
2018-01-11T09:35:55.940Z,120.55
2018-01-11T09:38:22.860Z,147.87
2018-01-11T09:40:50.548Z,115.45
2018-01-11T09:43:17.456Z,93.15
2018-01-11T09:45:45.175Z,112.60
2018-01-11T09:48:12.103Z,119.07
2018-01-11T09:50:39.031Z,95.15
2018-01-11T09:53:06.350Z,113.75
2018-01-11T09:55:33.296Z,90.57
2018-01-11T09:58:00.210Z,74.18
2018-01-11T10:00:27.133Z,67.82
2018-01-11T10:02:54.049Z,69.15
2018-01-11T10:05:21.744Z,64.80
2018-01-11T10:07:48.664Z,64.72
2018-01-11T10:10:15.595Z,52.67
2018-01-11T10:12:43.280Z,55.80
2018-01-11T10:15:10.208Z,61.00
2018-01-11T10:17:37.901Z,59.28
2018-01-11T10:20:04.858Z,64.68
2018-01-11T10:22:31.769Z,58.33
2018-01-11T10:24:58.686Z,56.92
2018-01-11T10:27:25.588Z,63.50
2018-01-11T10:29:53.272Z,67.07
2018-01-11T10:32:20.176Z,71.15
2018-01-11T10:34:47.100Z,70.28
2018-01-11T10:37:14.950Z,68.80
2018-01-11T10:39:42.640Z,62.33
2018-01-11T10:42:09.548Z,81.97
2018-01-11T10:44:36.471Z,76.62
2018-01-11T10:47:03.385Z,93.20
2018-01-11T10:49:30.308Z,76.40
2018-01-11T10:51:57.231Z,111.55
2018-01-11T10:54:24.936Z,122.13
2018-01-11T10:56:51.844Z,144.18
2018-01-11T10:59:19.538Z,205.62
2018-01-11T11:01:46.453Z,148.07
2018-01-11T11:04:14.150Z,258.05
2018-01-11T11:06:41.086Z,279.98
2018-01-11T11:09:08.012Z,178.57
2018-01-11T11:11:34.924Z,220.23
2018-01-11T11:14:01.865Z,168.50
2018-01-11T11:16:28.775Z,197.43
2018-01-11T11:18:55.707Z,181.02
2018-01-11T11:21:22.627Z,185.10
2018-01-11T11:23:51.228Z,159.93
2018-01-11T11:26:18.144Z,158.32
2018-01-11T11:28:45.838Z,147.90
2018-01-11T11:31:12.744Z,139.60
2018-01-11T11:33:39.669Z,146.77
2018-01-11T11:36:06.572Z,136.23
2018-01-11T11:38:33.501Z,122.07
2018-01-11T11:41:00.407Z,126.12
2018-01-11T11:43:27.343Z,129.02
2018-01-11T11:45:54.268Z,127.22
2018-01-11T11:48:21.196Z,135.43
2018-01-11T11:50:48.113Z,130.93
2018-01-11T11:53:15.806Z,133.73
2018-01-11T11:55:42.713Z,121.78
2018-01-11T11:58:10.413Z,133.52
2018-01-11T12:00:37.326Z,138.57
2018-01-11T12:03:05.016Z,132.12
2018-01-11T12:05:31.935Z,126.18
2018-01-11T12:07:59.637Z,131.25
2018-01-11T12:10:26.553Z,139.23
2018-01-11T12:12:53.482Z,150.23
2018-01-11T12:15:20.396Z,124.35
2018-01-11T12:17:47.325Z,133.37
2018-01-11T12:20:14.244Z,139.12
2018-01-11T12:22:41.164Z,140.30
2018-01-11T12:25:08.077Z,147.73
2018-01-11T12:27:35.021Z,157.88
2018-01-11T12:30:01.941Z,133.35
2018-01-11T12:32:28.873Z,145.38
2018-01-11T12:34:56.548Z,121.25
2018-01-11T12:37:23.485Z,143.93
2018-01-11T12:39:50.397Z,140.32
2018-01-11T12:42:17.321Z,164.50
2018-01-11T12:44:44.234Z,151.05
2018-01-11T12:47:11.152Z,149.62
2018-01-11T12:49:38.073Z,161.37
2018-01-11T12:52:04.995Z,150.38
2018-01-11T12:54:31.910Z,157.73
2018-01-11T12:56:58.844Z,143.98
2018-01-11T12:59:25.781Z,129.57
2018-01-11T13:01:53.536Z,123.22
2018-01-11T13:04:21.232Z,119.15
2018-01-11T13:06:48.164Z,140.60
2018-01-11T13:09:15.097Z,137.90
2018-01-11T13:11:42.801Z,124.28
2018-01-11T13:14:09.759Z,119.85
2018-01-11T13:16:36.740Z,100.53
2018-01-11T13:19:04.440Z,117.32
2018-01-11T13:21:31.383Z,108.03
2018-01-11T13:23:58.344Z,101.28
2018-01-11T13:26:25.299Z,120.55
2018-01-11T13:28:52.217Z,102.75
2018-01-11T13:31:19.164Z,105.80
2018-01-11T13:33:46.073Z,98.68
2018-01-11T13:36:13.034Z,101.65
2018-01-11T13:38:40.014Z,88.70
2018-01-11T13:41:06.962Z,94.30
2018-01-11T13:43:34.769Z,88.97
2018-01-11T13:46:01.710Z,79.87
2018-01-11T13:48:29.597Z,66.47
2018-01-11T13:50:56.560Z,65.47
2018-01-11T13:53:24.517Z,60.65
2018-01-11T13:55:51.474Z,48.53
2018-01-11T13:58:18.413Z,44.13
2018-01-11T14:00:45.372Z,38.35
2018-01-11T14:03:12.287Z,43.05
2018-01-11T14:05:39.238Z,43.78
2018-01-11T14:08:06.318Z,44.97
2018-01-11T14:10:33.284Z,41.75
2018-01-11T14:13:00.212Z,42.05
2018-01-11T14:15:27.148Z,48.85
2018-01-11T14:17:54.089Z,36.95
2018-01-11T14:20:21.038Z,40.20
2018-01-11T14:22:47.980Z,33.80
2018-01-11T14:25:14.936Z,33.97
2018-01-11T14:27:41.857Z,33.30
2018-01-11T14:30:08.792Z,37.90
2018-01-11T14:32:35.715Z,33.28
2018-01-11T14:35:03.441Z,25.60
2018-01-11T14:37:31.122Z,27.62
2018-01-11T14:39:58.056Z,26.42
2018-01-11T14:42:24.975Z,30.12
2018-01-11T14:44:52.719Z,27.42
2018-01-11T14:47:19.646Z,24.40
2018-01-11T14:49:47.347Z,29.37
2018-01-11T14:52:14.273Z,26.60
2018-01-11T14:54:41.198Z,24.63
2018-01-11T14:57:09.092Z,25.88
2018-01-11T14:59:36.005Z,22.80
2018-01-11T15:02:02.941Z,26.95
2018-01-11T15:04:29.852Z,29.98
2018-01-11T15:06:57.548Z,24.50
2018-01-11T15:09:24.497Z,38.88
2018-01-11T15:11:51.414Z,26.85
2018-01-11T15:14:18.341Z,24.33
2018-01-11T15:16:46.016Z,25.85
2018-01-11T15:19:12.932Z,29.25
2018-01-11T15:21:40.609Z,27.40
2018-01-11T15:24:07.557Z,29.75
2018-01-11T15:26:35.233Z,34.55
2018-01-11T15:29:02.156Z,28.70
2018-01-11T15:31:29.828Z,29.85
2018-01-11T15:33:56.749Z,31.50
2018-01-11T15:36:23.656Z,41.47
2018-01-11T15:38:50.609Z,31.67
2018-01-11T15:41:17.536Z,33.83
2018-01-11T15:43:44.456Z,31.92
2018-01-11T15:46:11.368Z,34.50
2018-01-11T15:48:38.300Z,35.80
2018-01-11T15:51:05.217Z,36.03
2018-01-11T15:53:32.149Z,35.63
2018-01-11T15:55:59.074Z,36.85
2018-01-11T15:58:26.014Z,42.10
2018-01-11T16:00:52.929Z,39.53
2018-01-11T16:03:19.849Z,41.40
2018-01-11T16:05:46.781Z,44.90
2018-01-11T16:08:13.710Z,49.78
2018-01-11T16:10:40.620Z,51.33
2018-01-11T16:13:07.572Z,51.35
2018-01-11T16:15:34.486Z,69.53
2018-01-11T16:18:02.211Z,55.08
2018-01-11T16:20:29.125Z,60.25
2018-01-11T16:22:56.056Z,53.80
2018-01-11T16:25:23.797Z,58.35
2018-01-11T16:27:50.720Z,51.97
2018-01-11T16:30:17.642Z,54.50
2018-01-11T16:32:45.322Z,51.30
2018-01-11T16:35:12.249Z,50.03
2018-01-11T16:37:39.974Z,34.50
2018-01-11T16:40:06.900Z,41.05
2018-01-11T16:42:33.830Z,38.42
2018-01-11T16:45:00.758Z,28.23
2018-01-11T16:47:28.650Z,37.30
2018-01-11T16:49:55.562Z,28.48
2018-01-11T16:52:23.304Z,38.30
2018-01-11T16:54:50.326Z,36.97
2018-01-11T16:57:17.315Z,42.65
2018-01-11T16:59:44.271Z,30.48
2018-01-11T17:02:11.983Z,38.67
2018-01-11T17:04:38.964Z,29.92
2018-01-11T17:09:45.044Z,35.22
2018-01-11T17:12:12.753Z,30.55
2018-01-11T17:14:39.697Z,30.30
2018-01-11T17:17:06.634Z,34.67
2018-01-11T17:19:33.560Z,31.25
2018-01-11T17:22:00.560Z,33.08
2018-01-11T17:24:27.496Z,35.25
2018-01-11T17:26:54.432Z,28.60
2018-01-11T17:29:21.369Z,30.33
2018-01-11T17:31:48.288Z,30.20
2018-01-11T17:34:15.239Z,27.77
2018-01-11T17:36:42.157Z,29.40
2018-01-11T17:39:09.085Z,29.45
2018-01-11T17:41:36.014Z,34.17
2018-01-11T17:44:02.977Z,38.80
2018-01-11T17:46:29.901Z,35.45
2018-01-11T17:48:56.845Z,41.90
2018-01-11T17:51:27.518Z,35.03
2018-01-11T17:53:55.212Z,41.37
2018-01-11T17:56:22.148Z,45.70
2018-01-11T17:58:49.090Z,48.17
2018-01-11T18:01:16.030Z,48.25
2018-01-11T18:03:42.938Z,55.65
2018-01-11T18:06:10.662Z,57.10
2018-01-11T18:08:37.584Z,53.63
2018-01-11T18:11:04.664Z,60.22
2018-01-11T18:13:31.903Z,59.95
2018-01-11T18:15:58.823Z,59.95
2018-01-11T18:18:25.753Z,63.13
2018-01-11T18:20:54.468Z,67.00
2018-01-11T18:23:21.418Z,64.97
2018-01-11T18:25:48.342Z,67.68
2018-01-11T18:28:15.287Z,69.10
2018-01-11T18:30:42.241Z,74.10
2018-01-11T18:33:09.175Z,75.82
2018-01-11T18:35:36.129Z,62.17
2018-01-11T18:38:03.071Z,60.70
2018-01-11T18:40:30.005Z,71.25
2018-01-11T18:42:56.919Z,68.87
2018-01-11T18:45:23.875Z,65.25
2018-01-11T18:47:50.789Z,59.78
2018-01-11T18:50:18.153Z,74.05
2018-01-11T18:52:45.153Z,75.25
2018-01-11T18:55:12.090Z,65.87
2018-01-11T18:57:39.045Z,77.12
2018-01-11T19:00:06.010Z,69.95
2018-01-11T19:02:32.988Z,69.87
2018-01-11T19:04:59.965Z,66.80
2018-01-11T19:07:28.852Z,69.15
2018-01-11T19:09:55.776Z,71.70
2018-01-11T19:12:22.778Z,78.20
2018-01-11T19:14:49.693Z,63.63
2018-01-11T19:17:16.632Z,71.07
2018-01-11T19:19:43.548Z,78.93
2018-01-11T19:22:11.321Z,72.05
2018-01-11T19:24:40.014Z,69.70
2018-01-11T19:27:07.721Z,69.00
2018-01-11T19:29:34.686Z,86.57
2018-01-11T19:32:02.542Z,72.60
2018-01-11T19:34:29.517Z,71.35
2018-01-11T19:36:56.515Z,71.65
2018-01-11T19:39:23.485Z,84.30
2018-01-11T19:41:50.480Z,78.03
2018-01-11T19:44:17.413Z,70.43
2018-01-11T19:46:45.106Z,71.80
2018-01-11T19:49:12.151Z,73.07
2018-01-11T19:51:39.164Z,74.50
2018-01-11T19:54:07.876Z,70.28
2018-01-11T19:56:34.817Z,74.55
2018-01-11T19:59:01.773Z,73.90
2018-01-11T20:01:28.732Z,82.80
2018-01-11T20:03:55.664Z,62.28
2018-01-11T20:06:22.649Z,57.67
2018-01-11T20:08:49.601Z,62.62
2018-01-11T20:11:17.318Z,71.35
2018-01-11T20:13:44.243Z,66.57
2018-01-11T20:16:11.181Z,66.93
2018-01-11T20:18:38.865Z,66.20
2018-01-11T20:21:09.222Z,74.70
2018-01-11T20:23:36.142Z,67.65
2018-01-11T20:26:03.072Z,61.67
2018-01-11T20:28:30.027Z,67.68
2018-01-11T20:30:56.992Z,80.87
2018-01-11T20:33:24.924Z,80.62
2018-01-11T20:35:51.880Z,70.28
2018-01-11T20:38:18.801Z,68.65
2018-01-11T20:40:46.495Z,72.07
2018-01-11T20:43:13.433Z,79.90
2018-01-11T20:45:41.416Z,74.50
2018-01-11T20:48:08.348Z,70.35
2018-01-11T20:50:35.283Z,77.82
2018-01-11T20:53:02.208Z,86.70
2018-01-11T20:55:29.904Z,87.93
2018-01-11T20:57:56.822Z,79.25
2018-01-11T21:00:23.768Z,81.53
2018-01-11T21:02:50.689Z,88.10
2018-01-11T21:05:17.645Z,95.15
2018-01-11T21:07:45.684Z,84.13
2018-01-11T21:10:12.649Z,91.72
2018-01-11T21:12:39.540Z,82.72
2018-01-11T21:15:06.465Z,82.15
2018-01-11T21:17:33.397Z,94.47
2018-01-11T21:20:02.304Z,80.53
2018-01-11T21:22:29.237Z,73.28
2018-01-11T21:24:56.924Z,89.53
2018-01-11T21:27:23.845Z,82.88
2018-01-11T21:29:52.536Z,83.05
2018-01-11T21:32:19.511Z,90.50
2018-01-11T21:34:46.447Z,84.53
2018-01-11T21:37:13.353Z,80.90
2018-01-11T21:39:41.052Z,94.53
2018-01-11T21:42:07.972Z,94.65
2018-01-11T21:44:36.678Z,83.87
2018-01-11T21:47:03.593Z,74.47
2018-01-11T21:49:31.285Z,78.15
2018-01-11T21:51:58.201Z,88.15
2018-01-11T21:54:25.894Z,84.50
2018-01-11T21:56:52.955Z,86.50
2018-01-11T21:59:19.899Z,86.35
2018-01-11T22:01:47.720Z,86.37
2018-01-11T22:04:15.420Z,92.95
2018-01-11T22:06:42.364Z,88.30
2018-01-11T22:09:09.272Z,80.55
2018-01-11T22:11:36.951Z,73.53
2018-01-11T22:14:03.851Z,66.07
2018-01-11T22:16:30.772Z,68.40
2018-01-11T22:18:57.716Z,73.40
2018-01-11T22:21:24.737Z,73.35
2018-01-11T22:23:51.668Z,71.45
2018-01-11T22:26:19.353Z,86.22
2018-01-11T22:28:46.270Z,78.00
2018-01-11T22:31:14.039Z,92.25
2018-01-11T22:33:40.990Z,85.60
2018-01-11T22:36:07.984Z,80.47
2018-01-11T22:38:34.917Z,87.85
2018-01-11T22:41:01.824Z,73.60
2018-01-11T22:43:28.805Z,86.57
2018-01-11T22:45:55.724Z,78.95
2018-01-11T22:48:22.657Z,73.60
2018-01-11T22:50:49.609Z,83.43
2018-01-11T22:53:16.624Z,71.45
2018-01-11T22:55:43.566Z,80.50
2018-01-11T22:58:10.483Z,68.40
2018-01-11T23:00:37.468Z,89.82
2018-01-11T23:03:04.401Z,84.35
2018-01-11T23:05:31.340Z,81.32
2018-01-11T23:07:58.300Z,89.22
2018-01-11T23:10:26.011Z,73.07
2018-01-11T23:12:52.940Z,99.70
2018-01-11T23:15:19.844Z,73.20
2018-01-11T23:17:46.771Z,88.95
2018-01-11T23:20:13.696Z,82.37
2018-01-11T23:22:40.644Z,83.15
2018-01-11T23:25:07.695Z,74.28
2018-01-11T23:27:34.664Z,78.22
2018-01-11T23:30:01.591Z,88.97
2018-01-11T23:32:28.551Z,73.78
2018-01-11T23:34:55.456Z,85.07
2018-01-11T23:37:23.227Z,89.47
2018-01-11T23:39:50.136Z,88.70
2018-01-11T23:42:17.081Z,78.30
2018-01-11T23:44:44.014Z,82.45
2018-01-11T23:47:11.701Z,89.25
2018-01-11T23:49:38.715Z,107.95
2018-01-11T23:52:07.482Z,104.43
2018-01-11T23:54:34.414Z,94.37
2018-01-11T23:57:01.332Z,95.93
2018-01-11T23:59:28.299Z,94.15
